• Join FlightAware (Why Join?)
  • Login
  • US Flag 
02:32AM EDT


 

Airport Tracker/Info


-or-


 

Live Flight TrackerFlight Track Log ✈ QXE2086 ✈ 18-May-2013 ✈ KSEA - KALW

Flight Track Log - Related Links

Times and Time Zones

All times are in EDT time to prevent confusion due to time zone crossing. See the QXE2086 flight status page for this flight to view local times or setup timezone preferences in your user account.

Time Position Orientation Groundspeed Altitude Reporting Facility
EDT Latitude Longitude Course Direction KTS MPH feet Rate Location/Type
11:11PM 47.1392 -121.0275 115° Southeast 327 376 19,000  Level Seattle Center
11:12PM 47.0936 -120.9108 120° Southeast 331 381 19,000  Level Seattle Center
11:13PM 47.0500 -120.7875 117° Southeast 339 390 19,000  Level Seattle Center
11:14PM 47.0119 -120.6842 118° Southeast 341 392 19,000  Level Seattle Center
11:15PM 46.9581 -120.5389 118° Southeast 341 392 19,000  Level Seattle Center
11:16PM 46.8961 -120.5918 115° Southeast  Level Estimated
11:16PM 46.9122 -120.4178 119° Southeast 341 392 19,000  Level Seattle Center
11:17PM 46.8675 -120.2972 118° Southeast 338 389 19,000  Level Seattle Center
11:18PM 46.8225 -120.1772 119° Southeast 337 388 19,000 -120 Level Seattle Center
11:19PM 46.7769 -120.0567 119° Southeast 340 391 18,800 -540 Descending Seattle Center
11:20PM 46.7297 -119.9353 120° Southeast 343 395 18,000 -840 Descending Seattle Center
11:21PM 46.6828 -119.8092 118° Southeast 353 406 17,200 -900 Descending Seattle Center
11:22PM 46.6342 -119.6844 120° Southeast 354 407 16,200 -1,080 Descending Seattle Center
11:23PM 46.5878 -119.5628 119° Southeast 346 398 15,100 -1,080 Descending Seattle Center
11:24PM 46.5411 -119.4428 119° Southeast 344 396 14,100 -1,020 Descending Seattle Center
11:25PM 46.4942 -119.3233 120° Southeast 342 394 13,100 -1,080 Descending Seattle Center
11:26PM 46.4486 -119.2075 120° Southeast 334 384 12,000 -1,080 Descending Seattle Center
11:27PM 46.4056 -119.0964 119° Southeast 320 368 11,000 -1,200 Descending Seattle Center
11:28PM 46.3633 -118.9911 120° Southeast 304 350 9,600 -1,500 Descending Seattle Center
11:29PM 46.3261 -118.8936 119° Southeast 279 321 8,000 -1,560 Descending Seattle Center
11:30PM 46.2925 -118.8094 120° Southeast 269 310 6,500 -1,440 Descending Seattle Center
11:31PM 46.2483 -118.6983 120° Southeast 267 307 5,200 -1,080 Descending Seattle Center
11:32PM 46.2172 -118.6217 120° Southeast 259 298 4,400 -780 Descending Seattle Center
11:33PM 46.2089 -118.5267 97° East 246 283 3,700 -420 Descending Seattle Center
11:34PM 46.2017 -118.4175 95° East 248 285 3,600 -300 Descending Seattle Center
11:35PM 46.1997 -118.3203 92° East 247 284 3,200 -540 Descending Seattle Center
11:36PM 46.1717 -118.2444 118° Southeast 236 272 2,600 -540 Descending Seattle Center
11:37PM 46.1339 -118.2336 169° South 188 216 2,200 -420 Descending Seattle Center